createdAt,value
2023-05-14T00:00:30.094Z,102164.88
2023-05-14T00:02:56.648Z,102163.31
2023-05-14T00:05:23.326Z,102163.44
2023-05-14T00:07:49.763Z,102159.09
2023-05-14T00:10:17.597Z,102159.41
2023-05-14T00:12:43.981Z,102152.66
2023-05-14T00:15:10.515Z,102152.03
2023-05-14T00:17:37.439Z,102149.31
2023-05-14T00:20:07.187Z,102148.66
2023-05-14T00:22:34.485Z,102142.66
2023-05-14T00:25:00.963Z,102148.03
2023-05-14T00:27:27.553Z,102143.06
2023-05-14T00:29:54.020Z,102137.31
2023-05-14T00:32:20.461Z,102137.59
2023-05-14T00:34:46.864Z,102137.78
2023-05-14T00:37:13.320Z,102135.91
2023-05-14T00:39:39.742Z,102129.91
2023-05-14T00:42:06.716Z,102125.69
2023-05-14T00:44:33.176Z,102124.97
2023-05-14T00:47:00.354Z,102126.00
2023-05-14T00:49:28.595Z,102127.06
2023-05-14T00:51:55.932Z,102121.69
2023-05-14T00:54:22.793Z,102114.84
2023-05-14T00:56:49.271Z,102109.88
2023-05-14T00:59:15.666Z,102102.22
2023-05-14T01:01:42.712Z,102100.00
2023-05-14T01:04:11.668Z,102102.72
2023-05-14T01:07:07.078Z,102115.16
2023-05-14T01:09:44.834Z,102114.38
2023-05-14T01:12:26.015Z,102111.03
2023-05-14T01:15:06.534Z,102113.00
2023-05-14T01:17:35.870Z,102108.91
2023-05-14T01:20:02.454Z,102111.81
2023-05-14T01:22:28.824Z,102113.81
2023-05-14T01:24:55.806Z,102107.06
2023-05-14T01:27:31.878Z,102110.75
2023-05-14T01:30:23.059Z,102105.69
2023-05-14T01:32:54.398Z,102111.16
2023-05-14T01:35:25.261Z,102112.94
2023-05-14T01:37:54.904Z,102121.84
2023-05-14T01:40:22.017Z,102113.31
2023-05-14T01:42:51.821Z,102115.41
2023-05-14T01:45:21.131Z,102112.13
2023-05-14T01:47:48.078Z,102102.72
2023-05-14T01:50:14.586Z,102096.84
2023-05-14T01:52:41.081Z,102106.59
2023-05-14T01:55:08.020Z,102102.50
2023-05-14T01:57:34.459Z,102102.78
2023-05-14T02:00:00.991Z,102097.72
2023-05-14T02:02:27.480Z,102093.50
2023-05-14T02:04:53.973Z,102086.56
2023-05-14T02:07:20.662Z,102084.97
2023-05-14T02:09:47.112Z,102078.03
2023-05-14T02:12:13.559Z,102085.09
2023-05-14T02:14:40.012Z,102079.00
2023-05-14T02:17:06.486Z,102079.91
2023-05-14T02:19:32.935Z,102077.38
2023-05-14T02:22:00.310Z,102078.44
2023-05-14T02:24:27.165Z,102082.00
2023-05-14T02:26:53.707Z,102086.31
2023-05-14T02:29:20.451Z,102082.06
2023-05-14T02:31:46.864Z,102079.66
2023-05-14T02:34:13.286Z,102075.34
2023-05-14T02:36:40.075Z,102078.91
2023-05-14T02:39:06.629Z,102072.91
2023-05-14T02:41:33.128Z,102065.34
2023-05-14T02:43:59.650Z,102067.13
2023-05-14T02:46:26.142Z,102063.00
2023-05-14T02:48:52.628Z,102066.56
2023-05-14T02:51:20.301Z,102062.25
2023-05-14T02:53:46.858Z,102064.13
2023-05-14T02:56:13.261Z,102060.63
2023-05-14T02:58:39.706Z,102065.06
2023-05-14T03:01:06.178Z,102066.84
2023-05-14T03:03:33.783Z,102061.69
2023-05-14T03:06:00.792Z,102064.50
2023-05-14T03:08:27.207Z,102058.44
2023-05-14T03:10:53.664Z,102058.81
2023-05-14T03:13:20.718Z,102065.00
2023-05-14T03:15:47.403Z,102052.78
2023-05-14T03:18:14.319Z,102061.53
2023-05-14T03:20:41.520Z,102064.44
2023-05-14T03:23:08.026Z,102062.75
2023-05-14T03:25:34.436Z,102061.97
2023-05-14T03:28:00.975Z,102057.78
2023-05-14T03:30:27.563Z,102058.81
2023-05-14T03:32:54.023Z,102059.75
2023-05-14T03:35:20.494Z,102058.03
2023-05-14T03:37:46.901Z,102053.75
2023-05-14T03:40:13.275Z,102052.91
2023-05-14T03:42:39.780Z,102062.56
2023-05-14T03:45:07.075Z,102060.78
2023-05-14T03:47:33.547Z,102059.81
2023-05-14T03:50:00.291Z,102058.03
2023-05-14T03:52:26.723Z,102056.28
2023-05-14T03:54:53.174Z,102052.72
2023-05-14T03:57:21.257Z,102045.59
2023-05-14T03:59:48.017Z,102049.25
2023-05-14T04:02:14.491Z,102048.41
2023-05-14T04:04:42.266Z,102043.19
2023-05-14T04:07:08.969Z,102043.06
2023-05-14T04:09:35.410Z,102045.69
2023-05-14T04:12:01.873Z,102041.41
2023-05-14T04:14:28.245Z,102043.19
2023-05-14T04:16:54.713Z,102045.88
2023-05-14T04:19:21.147Z,102047.66
2023-05-14T04:21:47.564Z,102037.72
2023-05-14T04:24:13.977Z,102034.81
2023-05-14T04:26:40.419Z,102040.91
2023-05-14T04:29:06.783Z,102047.94
2023-05-14T04:31:33.206Z,102042.59
2023-05-14T04:33:59.664Z,102035.34
2023-05-14T04:36:26.328Z,102035.28
2023-05-14T04:38:52.816Z,102044.63
2023-05-14T04:41:22.203Z,102046.88
2023-05-14T04:43:50.273Z,102040.59
2023-05-14T04:46:16.891Z,102043.78
2023-05-14T04:48:43.419Z,102041.03
2023-05-14T04:51:09.925Z,102042.34
2023-05-14T04:53:36.295Z,102044.59
2023-05-14T04:56:02.923Z,102036.31
2023-05-14T04:58:33.531Z,102044.75
2023-05-14T05:01:02.157Z,102040.97
2023-05-14T05:03:28.860Z,102047.63
2023-05-14T05:05:55.463Z,102046.50
2023-05-14T05:08:21.883Z,102042.69
2023-05-14T05:10:48.322Z,102036.09
2023-05-14T05:13:16.959Z,102049.91
2023-05-14T05:15:43.760Z,102033.84
2023-05-14T05:18:10.323Z,102039.97
2023-05-14T05:20:36.687Z,102046.06
2023-05-14T05:23:03.077Z,102043.97
2023-05-14T05:25:29.485Z,102045.63
2023-05-14T05:27:56.063Z,102048.19
2023-05-14T05:30:22.754Z,102050.50
2023-05-14T05:32:49.455Z,102051.25
2023-05-14T05:35:15.933Z,102053.25
2023-05-14T05:37:42.884Z,102060.75
2023-05-14T05:40:10.242Z,102052.53
2023-05-14T05:42:36.627Z,102050.00
2023-05-14T05:45:03.277Z,102047.72
2023-05-14T05:47:30.176Z,102045.94
2023-05-14T05:49:56.930Z,102052.53
2023-05-14T05:52:23.426Z,102060.41
2023-05-14T05:54:49.891Z,102067.16
2023-05-14T05:57:16.370Z,102060.84
2023-05-14T05:59:43.045Z,102054.13
2023-05-14T06:02:09.511Z,102063.91
2023-05-14T06:04:35.924Z,102055.16
2023-05-14T06:07:02.439Z,102062.88
2023-05-14T06:09:28.797Z,102065.38
2023-05-14T06:11:55.264Z,102058.16
2023-05-14T06:14:21.613Z,102056.13
2023-05-14T06:16:48.116Z,102069.84
2023-05-14T06:19:14.675Z,102069.81
2023-05-14T06:21:41.156Z,102061.50
2023-05-14T06:24:07.746Z,102056.56
2023-05-14T06:26:34.231Z,102067.19
2023-05-14T06:29:01.014Z,102071.09
2023-05-14T06:31:27.515Z,102074.25
2023-05-14T06:33:53.959Z,102072.44
2023-05-14T06:36:20.427Z,102066.22
2023-05-14T06:38:46.782Z,102061.09
2023-05-14T06:41:13.188Z,102063.16
2023-05-14T06:43:39.702Z,102065.16
2023-05-14T06:46:06.420Z,102060.94
2023-05-14T06:48:32.868Z,102075.00
2023-05-14T06:50:59.288Z,102055.66
2023-05-14T06:53:25.668Z,102058.47
2023-05-14T06:55:52.096Z,102047.97
2023-05-14T06:58:18.514Z,102043.53
2023-05-14T07:00:45.007Z,102045.25
2023-05-14T07:03:11.508Z,102043.47
2023-05-14T07:05:38.192Z,102041.28
2023-05-14T07:08:04.838Z,102056.94
2023-05-14T07:10:31.634Z,102053.38
2023-05-14T07:12:58.203Z,102049.06
2023-05-14T07:15:24.610Z,102058.53
2023-05-14T07:17:51.149Z,102053.69
2023-05-14T07:20:17.551Z,102052.28
2023-05-14T07:22:43.943Z,102062.00
2023-05-14T07:25:10.516Z,102053.69
2023-05-14T07:27:37.027Z,102051.75
2023-05-14T07:30:04.037Z,102053.50
2023-05-14T07:32:30.643Z,102050.06
2023-05-14T07:34:57.237Z,102049.78
2023-05-14T07:37:25.879Z,102046.78
2023-05-14T07:39:53.003Z,102051.28
2023-05-14T07:42:31.675Z,102046.47
2023-05-14T07:45:02.132Z,102038.88
2023-05-14T07:47:29.021Z,102038.94
2023-05-14T07:49:56.549Z,102032.63
2023-05-14T07:52:23.463Z,102032.31
2023-05-14T07:54:51.224Z,102042.69
2023-05-14T07:57:18.466Z,102032.28
2023-05-14T07:59:44.802Z,102030.09
2023-05-14T08:02:12.774Z,102026.66
2023-05-14T08:04:39.676Z,102026.97
2023-05-14T08:07:08.031Z,102030.78
2023-05-14T08:09:34.653Z,102034.84
2023-05-14T08:12:01.428Z,102032.63
2023-05-14T08:14:28.687Z,102024.06
2023-05-14T08:16:55.216Z,102028.91
2023-05-14T08:19:21.743Z,102025.94
2023-05-14T08:21:48.189Z,102029.66
2023-05-14T08:24:14.991Z,102028.81
2023-05-14T08:26:41.845Z,102034.13
2023-05-14T08:29:10.494Z,102033.34
2023-05-14T08:31:37.388Z,102030.03
2023-05-14T08:34:03.808Z,102029.31
2023-05-14T08:36:30.282Z,102025.88
2023-05-14T08:38:56.726Z,102018.31
2023-05-14T08:41:23.427Z,102023.88
2023-05-14T08:44:11.546Z,102027.91
2023-05-14T08:46:39.137Z,102020.22
2023-05-14T08:49:33.454Z,102007.06
2023-05-14T08:52:01.618Z,102010.41
2023-05-14T08:54:28.790Z,102011.66
2023-05-14T08:56:55.516Z,102007.16
2023-05-14T08:59:21.928Z,102016.50
2023-05-14T09:01:51.710Z,102011.19
2023-05-14T09:04:23.837Z,102004.31
2023-05-14T09:06:53.586Z,102007.84
2023-05-14T09:09:23.036Z,102004.31
2023-05-14T09:11:53.253Z,102004.53
2023-05-14T09:14:20.657Z,102000.78
2023-05-14T09:16:48.875Z,101997.06
2023-05-14T09:19:17.939Z,101998.22
2023-05-14T09:21:49.450Z,101990.25
2023-05-14T09:24:23.930Z,101990.28
2023-05-14T09:26:51.703Z,101991.22
2023-05-14T09:29:18.548Z,101991.16
2023-05-14T09:31:45.242Z,101990.47
2023-05-14T09:34:12.036Z,101987.88
2023-05-14T09:36:38.536Z,101990.22
2023-05-14T09:39:04.986Z,101984.41
2023-05-14T09:41:31.407Z,101973.06
2023-05-14T09:43:57.912Z,101982.13
2023-05-14T09:46:27.236Z,101975.63
2023-05-14T09:48:56.215Z,101971.78
2023-05-14T09:51:22.799Z,101967.53
2023-05-14T09:53:52.470Z,101964.47
2023-05-14T09:56:18.939Z,101965.56
2023-05-14T09:58:45.390Z,101964.66
2023-05-14T10:01:12.468Z,101972.78
2023-05-14T10:03:39.287Z,101964.38
2023-05-14T10:06:06.740Z,101957.28
2023-05-14T10:08:35.181Z,101963.00
2023-05-14T10:11:13.145Z,101959.56
2023-05-14T10:13:46.418Z,101963.41
2023-05-14T10:16:26.920Z,101953.22
2023-05-14T10:19:00.704Z,101961.97
2023-05-14T10:21:31.773Z,101954.34
2023-05-14T10:23:58.521Z,101953.00
2023-05-14T10:26:25.394Z,101950.41
2023-05-14T10:28:51.898Z,101947.59
2023-05-14T10:31:18.338Z,101940.28
2023-05-14T10:33:50.371Z,101941.66
2023-05-14T10:36:20.736Z,101942.31
2023-05-14T10:38:47.204Z,101942.66
2023-05-14T10:41:17.647Z,101939.50
2023-05-14T10:43:44.567Z,101939.97
2023-05-14T10:46:13.612Z,101933.84
2023-05-14T10:48:43.003Z,101919.81
2023-05-14T10:51:11.111Z,101925.91
2023-05-14T10:53:40.342Z,101923.78
2023-05-14T10:56:11.604Z,101921.59
2023-05-14T10:58:39.257Z,101920.72
2023-05-14T11:01:07.312Z,101918.41
2023-05-14T11:03:43.125Z,101915.75
2023-05-14T11:06:11.794Z,101915.75
2023-05-14T11:08:38.462Z,101910.31
2023-05-14T11:11:05.989Z,101917.25
2023-05-14T11:13:34.405Z,101911.97
2023-05-14T11:16:08.725Z,101909.06
2023-05-14T11:18:42.125Z,101906.66
2023-05-14T11:21:08.617Z,101910.13
2023-05-14T11:23:35.042Z,101905.50
2023-05-14T11:26:01.604Z,101894.91
2023-05-14T11:28:28.060Z,101895.84
2023-05-14T11:30:54.577Z,101894.91
2023-05-14T11:33:21.271Z,101890.69
2023-05-14T11:35:48.427Z,101881.56
2023-05-14T11:38:19.505Z,101883.22
2023-05-14T11:40:55.036Z,101883.84
2023-05-14T11:43:24.963Z,101877.66
2023-05-14T11:45:52.682Z,101879.53
2023-05-14T11:48:20.440Z,101876.38
2023-05-14T11:50:51.875Z,101871.19
2023-05-14T11:53:29.699Z,101874.16
2023-05-14T11:55:57.945Z,101872.88
2023-05-14T11:58:25.244Z,101868.53
2023-05-14T12:00:53.246Z,101873.63
2023-05-14T12:03:26.029Z,101874.75
2023-05-14T12:06:00.661Z,101862.34
2023-05-14T12:08:31.558Z,101858.94
2023-05-14T12:10:59.271Z,101859.63
2023-05-14T12:13:30.740Z,101865.91
2023-05-14T12:15:59.485Z,101852.91
2023-05-14T12:18:27.634Z,101858.25
2023-05-14T12:20:54.671Z,101855.84
2023-05-14T12:23:29.291Z,101852.63
2023-05-14T12:26:01.006Z,101854.09
2023-05-14T12:28:28.618Z,101846.88
2023-05-14T12:30:59.190Z,101850.66
2023-05-14T12:33:29.152Z,101848.38
2023-05-14T12:36:09.906Z,101843.00
2023-05-14T12:38:46.607Z,101843.06
2023-05-14T12:41:13.066Z,101837.63
2023-05-14T12:43:43.495Z,101831.88
2023-05-14T12:46:10.735Z,101838.38
2023-05-14T12:48:37.092Z,101823.13
2023-05-14T12:51:03.776Z,101826.44
2023-05-14T12:53:30.233Z,101828.66
2023-05-14T12:55:56.632Z,101828.31
2023-05-14T12:58:23.055Z,101821.81
2023-05-14T13:00:49.492Z,101819.78
2023-05-14T13:03:16.089Z,101822.66
2023-05-14T13:05:42.561Z,101813.59
2023-05-14T13:08:09.606Z,101820.28
2023-05-14T13:10:36.182Z,101814.69
2023-05-14T13:13:02.600Z,101822.00
2023-05-14T13:15:29.211Z,101814.06
2023-05-14T13:17:55.786Z,101815.72
2023-05-14T13:20:23.593Z,101808.44
2023-05-14T13:22:50.042Z,101813.69
2023-05-14T13:25:16.510Z,101812.97
2023-05-14T13:27:43.007Z,101810.66
2023-05-14T13:30:10.275Z,101801.91
2023-05-14T13:32:36.695Z,101807.25
2023-05-14T13:35:03.236Z,101801.06
2023-05-14T13:37:29.737Z,101795.56
2023-05-14T13:39:56.174Z,101795.38
2023-05-14T13:42:23.557Z,101799.16
2023-05-14T13:44:50.027Z,101798.84
2023-05-14T13:47:16.480Z,101793.03
2023-05-14T13:49:43.307Z,101790.09
2023-05-14T13:52:09.733Z,101785.50
2023-05-14T13:54:36.080Z,101783.63
2023-05-14T13:57:02.553Z,101787.47
2023-05-14T13:59:28.923Z,101786.19
2023-05-14T14:01:55.421Z,101782.25
2023-05-14T14:04:22.184Z,101778.81
2023-05-14T14:06:48.979Z,101771.19
2023-05-14T14:09:15.476Z,101771.06
2023-05-14T14:11:41.920Z,101774.97
2023-05-14T14:14:08.350Z,101774.47
2023-05-14T14:16:34.856Z,101773.31
2023-05-14T14:19:01.290Z,101775.91
2023-05-14T14:21:27.704Z,101775.91
2023-05-14T14:23:54.211Z,101763.97
2023-05-14T14:26:21.298Z,101758.69
2023-05-14T14:28:47.905Z,101761.94
2023-05-14T14:31:14.413Z,101765.34
2023-05-14T14:33:41.044Z,101756.50
2023-05-14T14:36:07.630Z,101755.59
2023-05-14T14:38:34.048Z,101756.38
2023-05-14T14:41:03.094Z,101753.38
2023-05-14T14:43:29.605Z,101757.41
2023-05-14T14:45:56.062Z,101754.28
2023-05-14T14:48:31.700Z,101753.34
2023-05-14T14:50:58.585Z,101757.41
2023-05-14T14:53:25.382Z,101759.53
2023-05-14T14:55:52.022Z,101750.66
2023-05-14T14:58:19.419Z,101754.63
2023-05-14T15:00:46.244Z,101755.00
2023-05-14T15:03:14.833Z,101754.16
2023-05-14T15:05:41.514Z,101748.72
2023-05-14T15:08:07.961Z,101750.97
2023-05-14T15:10:37.856Z,101752.47
2023-05-14T15:13:05.850Z,101752.03
2023-05-14T15:15:33.524Z,101752.31
2023-05-14T15:18:00.003Z,101752.25
2023-05-14T15:20:26.796Z,101743.50
2023-05-14T15:22:53.783Z,101745.25
2023-05-14T15:25:20.899Z,101743.50
2023-05-14T15:27:47.569Z,101744.84
2023-05-14T15:30:14.903Z,101741.88
2023-05-14T15:32:41.978Z,101733.38
2023-05-14T15:35:08.906Z,101738.22
2023-05-14T15:37:41.259Z,101731.66
2023-05-14T15:40:08.997Z,101729.19
2023-05-14T15:42:37.039Z,101736.31
2023-05-14T15:45:03.754Z,101722.16
2023-05-14T15:47:30.332Z,101727.88
2023-05-14T15:49:56.853Z,101727.34
2023-05-14T15:52:23.348Z,101713.56
2023-05-14T15:54:50.095Z,101708.88
2023-05-14T15:57:17.907Z,101711.00
2023-05-14T15:59:46.981Z,101717.06
2023-05-14T16:02:14.566Z,101716.06
2023-05-14T16:04:41.006Z,101720.03
2023-05-14T16:07:12.195Z,101720.47
2023-05-14T16:09:39.448Z,101722.78
2023-05-14T16:12:06.901Z,101717.78
2023-05-14T16:14:34.782Z,101721.66
2023-05-14T16:17:02.059Z,101720.47
2023-05-14T16:19:28.619Z,101730.47
2023-05-14T16:21:55.080Z,101730.53
2023-05-14T16:24:21.530Z,101735.06
2023-05-14T16:26:48.011Z,101730.56
2023-05-14T16:29:14.363Z,101729.94
2023-05-14T16:31:40.809Z,101728.56
2023-05-14T16:34:07.248Z,101726.38
2023-05-14T16:36:34.767Z,101735.28
2023-05-14T16:41:30.803Z,101728.25
2023-05-14T16:43:57.257Z,101724.31
2023-05-14T16:46:23.816Z,101734.03
2023-05-14T16:48:50.833Z,101730.44
2023-05-14T16:51:17.429Z,101731.94
2023-05-14T16:53:44.029Z,101732.59
2023-05-14T16:56:13.279Z,101740.97
2023-05-14T16:58:39.650Z,101739.81
2023-05-14T17:01:09.351Z,101750.16
2023-05-14T17:03:36.089Z,101747.59
2023-05-14T17:06:02.663Z,101750.75
2023-05-14T17:08:33.631Z,101752.94
2023-05-14T17:11:00.222Z,101747.44
2023-05-14T17:13:26.655Z,101743.97
2023-05-14T17:15:53.189Z,101743.44
2023-05-14T17:18:19.706Z,101744.63
2023-05-14T17:20:46.322Z,101739.63
2023-05-14T17:23:13.045Z,101745.28
2023-05-14T17:25:39.778Z,101747.59
2023-05-14T17:28:06.559Z,101750.53
2023-05-14T17:30:33.075Z,101752.69
2023-05-14T17:32:59.844Z,101756.31
2023-05-14T17:35:26.321Z,101751.13
2023-05-14T17:37:53.361Z,101754.22
2023-05-14T17:40:19.905Z,101754.66
2023-05-14T17:42:46.537Z,101747.50
2023-05-14T17:45:14.341Z,101747.66
2023-05-14T17:47:40.996Z,101741.28
2023-05-14T17:50:07.999Z,101751.50
2023-05-14T17:52:34.406Z,101752.78
2023-05-14T17:55:01.004Z,101759.06
2023-05-14T17:57:27.574Z,101756.56
2023-05-14T17:59:54.090Z,101770.88
2023-05-14T18:02:20.603Z,101764.34
2023-05-14T18:04:47.044Z,101773.25
2023-05-14T18:07:13.605Z,101772.22
2023-05-14T18:09:39.985Z,101777.28
2023-05-14T18:12:06.941Z,101776.28
2023-05-14T18:14:33.312Z,101766.72
2023-05-14T18:16:59.948Z,101771.28
2023-05-14T18:19:26.568Z,101770.88
2023-05-14T18:21:55.323Z,101776.28
2023-05-14T18:24:22.149Z,101779.78
2023-05-14T18:26:49.479Z,101782.25
2023-05-14T18:29:15.937Z,101787.81
2023-05-14T18:31:42.300Z,101786.81
2023-05-14T18:34:08.754Z,101792.00
2023-05-14T18:36:35.450Z,101791.34
2023-05-14T18:39:01.881Z,101796.66
2023-05-14T18:41:28.317Z,101791.22
2023-05-14T18:43:54.898Z,101796.88
2023-05-14T18:46:22.652Z,101793.94
2023-05-14T18:48:50.073Z,101795.75
2023-05-14T18:51:16.671Z,101796.06
2023-05-14T18:53:43.064Z,101798.72
2023-05-14T18:56:09.591Z,101805.69
2023-05-14T18:58:36.073Z,101809.88
2023-05-14T19:01:02.516Z,101804.97
2023-05-14T19:03:29.185Z,101812.25
2023-05-14T19:05:55.772Z,101805.69
2023-05-14T19:08:22.216Z,101807.38
2023-05-14T19:10:48.775Z,101804.00
2023-05-14T19:13:18.069Z,101802.44
2023-05-14T19:15:44.628Z,101809.22
2023-05-14T19:18:12.925Z,101805.72
2023-05-14T19:20:39.550Z,101811.16
2023-05-14T19:23:06.131Z,101813.06
2023-05-14T19:25:33.614Z,101814.25
2023-05-14T19:28:02.191Z,101809.19
2023-05-14T19:30:28.556Z,101803.28
2023-05-14T19:32:55.210Z,101815.97
2023-05-14T19:35:21.787Z,101805.50
2023-05-14T19:37:48.291Z,101812.13
2023-05-14T19:40:14.759Z,101804.16
2023-05-14T19:42:41.433Z,101813.16
2023-05-14T19:45:08.374Z,101812.31
2023-05-14T19:47:34.874Z,101811.66
2023-05-14T19:50:01.417Z,101808.59
2023-05-14T19:52:27.853Z,101809.53
2023-05-14T19:54:54.435Z,101805.50
2023-05-14T19:57:20.842Z,101808.56
2023-05-14T19:59:47.236Z,101810.75
2023-05-14T20:02:18.192Z,101809.78
2023-05-14T20:04:45.917Z,101811.88
2023-05-14T20:07:15.497Z,101814.72
2023-05-14T20:09:42.002Z,101804.66
2023-05-14T20:12:09.041Z,101810.63
2023-05-14T20:14:35.830Z,101809.72
2023-05-14T20:17:03.203Z,101810.84
2023-05-14T20:19:29.625Z,101802.66
2023-05-14T20:21:56.399Z,101813.47
2023-05-14T20:24:22.860Z,101807.72
2023-05-14T20:26:49.434Z,101809.28
2023-05-14T20:29:15.934Z,101798.97
2023-05-14T20:31:42.314Z,101802.31
2023-05-14T20:34:08.782Z,101799.81
2023-05-14T20:36:35.854Z,101803.06
2023-05-14T20:39:02.272Z,101806.91
2023-05-14T20:41:28.696Z,101800.31
2023-05-14T20:43:55.036Z,101807.50
2023-05-14T20:46:21.604Z,101789.31
2023-05-14T20:48:48.648Z,101795.19
2023-05-14T20:51:15.011Z,101793.25
2023-05-14T20:53:41.668Z,101796.38
2023-05-14T20:56:08.224Z,101796.97
2023-05-14T20:58:35.581Z,101786.31
2023-05-14T21:01:02.137Z,101782.84
2023-05-14T21:03:28.705Z,101786.44
2023-05-14T21:05:56.746Z,101783.19
2023-05-14T21:08:23.216Z,101778.75
2023-05-14T21:10:49.629Z,101778.16
2023-05-14T21:13:15.976Z,101786.31
2023-05-14T21:15:42.487Z,101779.34
2023-05-14T21:18:08.997Z,101778.66
2023-05-14T21:20:35.444Z,101780.78
2023-05-14T21:23:01.794Z,101782.97
2023-05-14T21:25:28.451Z,101787.63
2023-05-14T21:27:54.920Z,101787.75
2023-05-14T21:30:21.631Z,101783.78
2023-05-14T21:32:48.024Z,101794.78
2023-05-14T21:35:14.510Z,101789.78
2023-05-14T21:37:41.052Z,101790.72
2023-05-14T21:40:14.936Z,101790.56
2023-05-14T21:42:41.351Z,101778.69
2023-05-14T21:45:08.236Z,101772.72
2023-05-14T21:47:34.884Z,101769.38
2023-05-14T21:50:01.347Z,101766.03
2023-05-14T21:52:27.746Z,101768.75
2023-05-14T21:54:54.156Z,101763.75
2023-05-14T21:57:21.686Z,101765.63
2023-05-14T21:59:48.047Z,101771.34
2023-05-14T22:02:14.634Z,101762.44
2023-05-14T22:04:41.265Z,101765.53
2023-05-14T22:07:07.741Z,101765.06
2023-05-14T22:09:34.100Z,101763.72
2023-05-14T22:12:00.601Z,101756.06
2023-05-14T22:14:27.248Z,101758.78
2023-05-14T22:16:53.973Z,101749.22
2023-05-14T22:19:20.553Z,101747.66
2023-05-14T22:21:46.915Z,101753.78
2023-05-14T22:24:13.305Z,101747.78
2023-05-14T22:26:39.811Z,101755.19
2023-05-14T22:29:06.179Z,101750.75
2023-05-14T22:31:32.598Z,101750.03
2023-05-14T22:33:59.061Z,101751.84
2023-05-14T22:36:25.534Z,101747.50
2023-05-14T22:38:52.005Z,101746.06
2023-05-14T22:41:18.423Z,101745.94
2023-05-14T22:43:44.908Z,101741.75
2023-05-14T22:46:11.414Z,101734.19
2023-05-14T22:48:37.763Z,101733.34
2023-05-14T22:51:04.567Z,101736.81
2023-05-14T22:53:30.994Z,101732.72
2023-05-14T22:55:57.478Z,101732.13
2023-05-14T22:58:23.910Z,101727.94
2023-05-14T23:00:50.501Z,101721.84
2023-05-14T23:03:16.921Z,101722.78
2023-05-14T23:05:46.286Z,101726.25
2023-05-14T23:08:12.673Z,101712.25
2023-05-14T23:10:39.172Z,101714.28
2023-05-14T23:13:05.567Z,101720.38
2023-05-14T23:15:32.851Z,101711.88
2023-05-14T23:17:59.717Z,101724.19
2023-05-14T23:20:26.174Z,101715.56
2023-05-14T23:22:53.996Z,101715.56
2023-05-14T23:25:20.516Z,101713.91
2023-05-14T23:27:47.890Z,101711.28
2023-05-14T23:30:14.281Z,101704.34
2023-05-14T23:32:40.670Z,101700.88
2023-05-14T23:35:07.362Z,101704.47
2023-05-14T23:37:33.903Z,101698.34
2023-05-14T23:40:01.567Z,101701.00
2023-05-14T23:42:27.968Z,101686.38
2023-05-14T23:44:54.318Z,101686.25
2023-05-14T23:47:20.801Z,101676.69
2023-05-14T23:49:47.186Z,101678.38
2023-05-14T23:52:13.556Z,101667.97
2023-05-14T23:54:39.986Z,101671.44
2023-05-14T23:57:06.409Z,101663.88
2023-05-14T23:59:32.816Z,101668.41
